Portada
METAR-TAF:

METAR-TAF

Aeroports :

Aeroport Internacional Maiquetía Simón Bolívar

Caracas, Veneçuela

latitud: 10-36N, longitud: 066-59W, altitud: 43 m

Observació

L'informe es va fer fa 48 minuts, a les 11:03 UTC
Vent 2 kt del Oest
Temperatura
Pressió 1012 hPa

METAR: SVMI 281103Z AUTO 26002KT NCD ///// Q1012

Hora: 07:51 (11:51 UTC)

Pronòstic

L'informe es va fer fa 1 hora i 51 minuts, a les 10:00 UTC
Pronòstic vàlid del 28 a les 12 UTC al 29 a les 12 UTC
Vent 5 kt del Nord-Est
Visibilitat 10 km o més
Núvols disperses a una alçada de 1600 ft
Evolucionant progressivament
l' 28 a les 10 UTC al 28 a les 16 UTC
Vent 11 kt del Nord-Est
Visibilitat 10 km o més
Núvols disperses a una alçada de 1600 ft

TAF: SVMI 281000Z 2812/2912 05005KT 9999 SCT016 TX33/2718Z TN22/2808Z BECMG 2810/2816 05011KT 9999 SCT016

Observacions i pronòstics meteorològics de més de 4000 aeroports (METAR i TAF).

Les estacions disponibles són els punts grocs i vermells al mapa.

Posi el ratolí al punt desitjat per veure el nom de l'estació.

Feu clic per veure les observacions i els pronòstics meteorològics.

Per canviar el mapa: feu clic els botons verds amb una creu de color negre per apropar; al botó verd amb un guió per allunyar la imatge; o en les fletxes verdes per a mapes adjacents.


METAR-TAF: